Time;durP1;ratioP1;P1;durP2;ratioP2;P2;SDS_P1;SDS_P2;PMS_P1;PMS_P2;Temp;Humidity;BMP_temperature;BMP_pressure;BME280_temperature;BME280_humidity;BME280_pressure;Samples;Min_cycle;Max_cycle;Signal;HPM_P1;HPM_P2
2021/03/26 00:01:48;;;;;;;21.23;10.50;;;0.10;87.80;;;;;;4223614;28;20278;-64
2021/03/26 00:03:53;;;;;;;24.77;11.87;;;0.10;88.20;;;;;;4221837;28;20361;-64
2021/03/26 00:05:58;;;;;;;22.70;10.83;;;0.10;88.30;;;;;;4223146;28;20329;-65
2021/03/26 00:07:59;;;;;;;22.20;10.93;;;0.00;88.20;;;;;;4222522;28;20264;-64
2021/03/26 00:10:01;;;;;;;27.07;10.87;;;0.00;88.70;;;;;;4223333;28;20279;-64
2021/03/26 00:12:10;;;;;;;22.03;9.43;;;-0.10;89.10;;;;;;4221899;28;20337;-63
2021/03/26 00:14:12;;;;;;;23.23;10.37;;;-0.10;90.10;;;;;;4215210;28;20325;-63
2021/03/26 00:16:13;;;;;;;20.43;9.13;;;-0.10;89.30;;;;;;4204971;28;20702;-62
2021/03/26 00:18:14;;;;;;;20.53;9.77;;;-0.10;89.20;;;;;;4204468;28;20338;-63
2021/03/26 00:20:15;;;;;;;19.87;9.87;;;-0.10;89.70;;;;;;4205681;28;20309;-63
2021/03/26 00:22:17;;;;;;;19.93;10.03;;;-0.10;90.20;;;;;;4205030;28;20648;-62
2021/03/26 00:24:18;;;;;;;19.03;9.43;;;0.00;90.20;;;;;;4204673;28;20304;-63
2021/03/26 00:26:20;;;;;;;20.17;9.27;;;-0.10;90.30;;;;;;4204717;28;20325;-63
2021/03/26 00:28:21;;;;;;;20.27;9.93;;;-0.10;90.00;;;;;;4205792;28;20269;-63
2021/03/26 00:30:23;;;;;;;20.20;8.57;;;-0.10;90.90;;;;;;4203360;28;20295;-62
2021/03/26 00:32:24;;;;;;;21.67;9.37;;;-0.10;90.50;;;;;;4204608;28;20323;-61
2021/03/26 00:34:26;;;;;;;20.10;10.07;;;-0.10;90.60;;;;;;4204810;28;20272;-62
2021/03/26 00:36:31;;;;;;;23.70;11.20;;;-0.10;91.00;;;;;;4206472;28;20841;-63
2021/03/26 00:38:32;;;;;;;20.03;9.40;;;-0.10;91.20;;;;;;4205135;28;20284;-62
2021/03/26 00:40:33;;;;;;;19.17;8.37;;;-0.10;91.00;;;;;;4206090;28;20354;-63
2021/03/26 00:42:34;;;;;;;14.63;8.60;;;-0.10;91.20;;;;;;4204860;28;20322;-63
2021/03/26 00:44:36;;;;;;;17.17;8.10;;;-0.10;90.60;;;;;;4206126;28;20276;-63
2021/03/26 00:46:41;;;;;;;13.90;7.37;;;-0.10;90.50;;;;;;4204314;28;20569;-62
2021/03/26 00:48:42;;;;;;;16.57;8.40;;;-0.10;90.80;;;;;;4205818;28;20269;-63
2021/03/26 00:50:52;;;;;;;20.40;8.00;;;0.00;90.70;;;;;;4204970;28;20290;-63
2021/03/26 00:52:54;;;;;;;16.35;8.07;;;-0.10;90.80;;;;;;4205443;28;20326;-61
2021/03/26 00:54:55;;;;;;;23.97;9.13;;;-0.10;90.90;;;;;;4205242;28;20024;-63
2021/03/26 00:56:56;;;;;;;24.23;10.53;;;-0.10;91.10;;;;;;4204615;28;20377;-64
2021/03/26 00:58:57;;;;;;;24.17;10.53;;;-0.10;91.40;;;;;;4205803;28;20260;-65
2021/03/26 01:00:58;;;;;;;22.13;10.90;;;-0.20;91.50;;;;;;4204631;28;20643;-72
2021/03/26 01:02:59;;;;;;;28.43;11.80;;;-0.20;91.50;;;;;;4205747;28;20715;-63
2021/03/26 01:05:01;;;;;;;31.67;12.53;;;-0.30;91.80;;;;;;4204129;28;20849;-63
2021/03/26 01:07:04;;;;;;;25.43;10.90;;;-0.30;91.70;;;;;;4208967;28;20268;-62
2021/03/26 01:09:05;;;;;;;44.23;13.73;;;-0.30;91.70;;;;;;4207898;28;20256;-63
2021/03/26 01:11:11;;;;;;;28.00;11.43;;;-0.30;91.90;;;;;;4208828;28;20265;-62
2021/03/26 01:13:16;;;;;;;30.23;11.70;;;-0.30;91.80;;;;;;4207706;28;20341;-62
2021/03/26 01:15:20;;;;;;;23.57;10.40;;;-0.30;91.90;;;;;;4208739;28;20936;-63
2021/03/26 01:17:21;;;;;;;23.03;10.13;;;-0.20;91.90;;;;;;4207343;28;20692;-63
2021/03/26 01:19:23;;;;;;;26.10;11.43;;;-0.30;92.10;;;;;;4208628;28;20272;-60
2021/03/26 01:21:28;;;;;;;27.47;9.87;;;-0.30;92.20;;;;;;4207345;28;20326;-63
2021/03/26 01:23:30;;;;;;;22.33;10.00;;;-0.30;92.30;;;;;;4208887;28;20285;-63
2021/03/26 01:25:39;;;;;;;28.67;11.63;;;-0.40;92.90;;;;;;4207840;28;20268;-64
2021/03/26 01:27:42;;;;;;;28.80;10.47;;;-0.40;92.80;;;;;;4208557;28;20349;-63
2021/03/26 01:29:43;;;;;;;22.17;10.57;;;-0.40;93.20;;;;;;4207480;28;20333;-63
2021/03/26 01:31:44;;;;;;;25.87;9.40;;;-0.40;93.10;;;;;;4207606;28;21130;-63
2021/03/26 01:33:46;;;;;;;20.97;10.53;;;-0.50;93.20;;;;;;4208006;28;20334;-63
2021/03/26 01:35:47;;;;;;;23.30;10.33;;;-0.50;93.20;;;;;;4207322;28;20284;-62
2021/03/26 01:37:49;;;;;;;18.17;8.20;;;-0.50;93.70;;;;;;4208196;28;20327;-62
2021/03/26 01:39:50;;;;;;;20.67;9.10;;;-0.60;93.70;;;;;;4207206;28;20328;-62
2021/03/26 01:41:51;;;;;;;20.73;9.27;;;-0.50;93.50;;;;;;4208643;28;20322;-67
2021/03/26 01:43:53;;;;;;;18.13;8.70;;;-0.60;93.40;;;;;;4207083;28;20273;-64
2021/03/26 01:45:56;;;;;;;18.63;8.30;;;-0.60;93.40;;;;;;4208770;28;20313;-65
2021/03/26 01:47:57;;;;;;;16.77;8.73;;;-0.60;93.40;;;;;;4206392;28;20294;-62
2021/03/26 01:49:58;;;;;;;18.57;7.97;;;-0.60;93.50;;;;;;4207366;28;20322;-63
2021/03/26 01:51:59;;;;;;;18.17;8.67;;;-0.60;93.60;;;;;;4206881;28;20808;-62
2021/03/26 01:54:02;;;;;;;21.30;9.20;;;-0.60;93.70;;;;;;4208019;28;20303;-63
2021/03/26 01:56:04;;;;;;;16.97;9.23;;;-0.60;93.50;;;;;;4206399;28;20296;-63
2021/03/26 01:58:07;;;;;;;16.47;8.17;;;-0.60;93.80;;;;;;4207902;28;20659;-66
2021/03/26 02:00:11;;;;;;;15.23;8.13;;;-0.70;94.10;;;;;;4190580;28;20277;-62
2021/03/26 02:02:17;;;;;;;20.30;9.27;;;-0.70;94.10;;;;;;4190659;28;20335;-62
2021/03/26 02:04:37;;;;;;;18.90;9.17;;;-0.70;94.30;;;;;;4190298;28;20293;-63
2021/03/26 02:06:43;;;;;;;18.95;8.52;;;-0.70;94.30;;;;;;4205996;28;20338;-62
2021/03/26 02:08:45;;;;;;;21.43;9.40;;;-0.70;94.30;;;;;;4207036;28;20032;-63
2021/03/26 02:10:47;;;;;;;21.63;9.67;;;-0.80;94.70;;;;;;4206264;28;20804;-63
2021/03/26 02:12:53;;;;;;;20.53;10.13;;;-0.80;94.50;;;;;;4207792;28;20856;-63
2021/03/26 02:15:07;;;;;;;22.53;9.67;;;-0.80;94.70;;;;;;4206438;28;20697;-62
2021/03/26 02:17:13;;;;;;;19.10;9.53;;;-0.80;95.40;;;;;;4206458;28;20297;-63
2021/03/26 02:19:26;;;;;;;23.57;10.03;;;-0.90;95.10;;;;;;4207446;28;20289;-63
2021/03/26 02:21:32;;;;;;;24.37;9.53;;;-0.90;95.50;;;;;;4205165;28;20289;-63
2021/03/26 02:23:35;;;;;;;26.53;9.40;;;-0.90;96.00;;;;;;4207288;28;20509;-63
2021/03/26 02:25:37;;;;;;;17.60;9.03;;;-1.00;96.00;;;;;;4207431;28;20278;-63
2021/03/26 02:27:39;;;;;;;20.93;9.27;;;-1.00;96.30;;;;;;4206411;28;20758;-63
2021/03/26 02:29:40;;;;;;;19.83;9.47;;;-1.00;96.60;;;;;;4207069;28;20675;-63
2021/03/26 02:31:41;;;;;;;19.67;8.77;;;-1.10;96.20;;;;;;4206103;28;20260;-63
2021/03/26 02:33:44;;;;;;;19.80;9.10;;;-1.10;96.50;;;;;;4207780;28;20332;-69
2021/03/26 02:36:17;;;;;;;20.87;9.00;;;-1.10;96.50;;;;;;4206260;28;20265;-66
2021/03/26 02:38:26;;;;;;;17.20;8.83;;;-1.10;97.30;;;;;;4207800;28;20667;-63
2021/03/26 02:40:43;;;;;;;21.67;8.63;;;-1.10;96.70;;;;;;4206095;28;20784;-62
2021/03/26 02:42:46;;;;;;;23.93;9.63;;;-1.10;97.10;;;;;;4206961;28;20265;-62
2021/03/26 02:44:58;;;;;;;21.17;9.30;;;-1.10;96.70;;;;;;4206396;28;20640;-62
2021/03/26 02:47:12;;;;;;;22.47;9.37;;;-1.20;97.10;;;;;;4207279;28;20261;-62
2021/03/26 02:49:15;;;;;;;24.23;10.73;;;-1.20;97.20;;;;;;4204825;28;20284;-62
2021/03/26 02:51:28;;;;;;;23.17;10.00;;;-1.20;97.20;;;;;;4206847;28;20754;-62
2021/03/26 02:53:47;;;;;;;19.90;9.27;;;-1.20;97.90;;;;;;4205352;28;20300;-69
2021/03/26 02:56:09;;;;;;;19.10;8.97;;;-1.20;97.90;;;;;;4206540;28;20276;-69
2021/03/26 02:58:41;;;;;;;20.00;9.10;;;-1.30;98.60;;;;;;4206324;28;20298;-63
2021/03/26 03:01:05;;;;;;;20.65;9.82;;;-1.30;98.10;;;;;;4194739;28;20321;-63
2021/03/26 03:03:08;;;;;;;23.00;9.60;;;-1.30;98.20;;;;;;4206977;28;20434;-63
2021/03/26 03:05:20;;;;;;;18.10;9.20;;;-1.30;98.40;;;;;;4206286;28;20277;-63
2021/03/26 03:07:36;;;;;;;19.40;8.43;;;-1.30;98.20;;;;;;4207108;28;20345;-65
2021/03/26 03:09:40;;;;;;;16.47;7.33;;;-1.20;98.80;;;;;;4206135;28;20069;-62
2021/03/26 03:11:58;;;;;;;13.18;6.47;;;-1.20;99.00;;;;;;4206937;28;20342;-62
2021/03/26 03:14:32;;;;;;;13.63;7.10;;;-1.10;99.00;;;;;;4205566;28;20089;-63
2021/03/26 03:17:24;;;;;;;12.67;5.87;;;-1.00;99.70;;;;;;4198357;28;20357;-63
2021/03/26 03:19:38;;;;;;;12.07;6.27;;;-0.90;98.60;;;;;;4181843;28;20333;-63
2021/03/26 03:21:42;;;;;;;13.70;5.90;;;-0.80;98.20;;;;;;4205417;28;20327;-63
2021/03/26 03:23:52;;;;;;;12.93;5.90;;;-0.80;98.00;;;;;;4205592;28;20274;-63
2021/03/26 03:26:01;;;;;;;17.83;6.63;;;-0.80;97.70;;;;;;4220385;28;20328;-62
2021/03/26 03:28:20;;;;;;;18.90;6.63;;;-0.70;97.80;;;;;;4221852;28;20430;-63
2021/03/26 03:30:42;;;;;;;15.77;7.07;;;-0.70;98.00;;;;;;4223354;28;20328;-62
2021/03/26 03:32:55;;;;;;;13.20;6.33;;;-0.70;98.10;;;;;;4221800;28;20325;-63
2021/03/26 03:35:06;;;;;;;15.30;5.83;;;-0.70;97.90;;;;;;4222765;28;20305;-63
2021/03/26 03:37:26;;;;;;;13.10;6.17;;;-0.70;98.00;;;;;;4222484;28;20613;-62
2021/03/26 03:39:40;;;;;;;12.53;5.63;;;-0.70;97.90;;;;;;4208764;28;21030;-63
2021/03/26 03:41:55;;;;;;;17.47;6.00;;;-0.70;98.10;;;;;;4205715;28;20659;-63
2021/03/26 03:44:12;;;;;;;14.20;5.60;;;-0.60;97.90;;;;;;4205321;28;20310;-62
2021/03/26 03:46:13;;;;;;;14.53;5.90;;;-0.70;98.00;;;;;;4205748;28;20602;-63
2021/03/26 03:48:32;;;;;;;12.43;5.63;;;-0.60;97.70;;;;;;4204524;28;20261;-63
2021/03/26 03:50:40;;;;;;;13.87;5.93;;;-0.60;97.60;;;;;;4206251;28;20264;-63
2021/03/26 03:52:41;;;;;;;11.77;6.33;;;-0.60;97.90;;;;;;4205422;28;20745;-62
2021/03/26 03:55:14;;;;;;;10.63;6.07;;;-0.60;97.90;;;;;;4206173;28;20338;-62
2021/03/26 03:57:22;;;;;;;12.70;5.00;;;-0.60;98.00;;;;;;4201907;28;21047;-62
2021/03/26 03:59:50;;;;;;;17.77;6.17;;;-0.60;97.70;;;;;;4206289;28;20281;-62
2021/03/26 04:02:24;;;;;;;12.40;5.90;;;-0.60;97.80;;;;;;4205385;28;20322;-62
2021/03/26 04:04:33;;;;;;;13.00;5.70;;;-0.60;98.40;;;;;;4201463;28;20691;-62
2021/03/26 04:06:45;;;;;;;12.33;6.43;;;-0.60;97.80;;;;;;4204891;28;20276;-63
2021/03/26 04:09:01;;;;;;;13.23;6.00;;;-0.60;97.70;;;;;;4207042;28;20393;-62
2021/03/26 04:11:22;;;;;;;13.00;5.60;;;-0.60;97.80;;;;;;4204868;28;20288;-62
2021/03/26 04:13:31;;;;;;;19.13;6.57;;;-0.50;98.50;;;;;;4205839;28;20360;-63
2021/03/26 04:15:41;;;;;;;13.90;6.23;;;-0.50;98.60;;;;;;4204829;28;21098;-63
2021/03/26 04:17:54;;;;;;;16.50;6.18;;;-0.40;98.40;;;;;;4205639;28;20331;-63
2021/03/26 04:20:00;;;;;;;15.87;6.00;;;-0.30;98.30;;;;;;4204659;28;20577;-63
2021/03/26 04:22:07;;;;;;;14.77;5.87;;;-0.20;98.10;;;;;;4206422;28;20253;-64
2021/03/26 04:24:18;;;;;;;18.20;7.00;;;-0.20;98.10;;;;;;4204866;28;20901;-63
2021/03/26 04:26:36;;;;;;;18.57;7.27;;;-0.20;97.90;;;;;;4205809;28;20253;-63
2021/03/26 04:28:43;;;;;;;14.77;6.73;;;-0.10;97.90;;;;;;4204732;28;20799;-63
2021/03/26 04:30:52;;;;;;;15.27;7.07;;;-0.10;97.30;;;;;;4205625;28;20280;-62
2021/03/26 04:32:55;;;;;;;14.97;6.53;;;-0.20;97.20;;;;;;4205066;28;20269;-62
2021/03/26 04:34:56;;;;;;;22.87;10.17;;;-0.20;97.20;;;;;;4205670;28;20253;-64
2021/03/26 04:37:11;;;;;;;26.43;11.13;;;-0.30;97.50;;;;;;4204597;28;20292;-62
2021/03/26 04:39:27;;;;;;;28.17;11.23;;;-0.30;98.00;;;;;;4206453;28;20372;-63
2021/03/26 04:41:35;;;;;;;33.60;12.20;;;-0.30;98.50;;;;;;4207568;28;20273;-64
2021/03/26 04:43:53;;;;;;;36.43;12.87;;;-0.20;98.50;;;;;;4209414;28;20265;-69
2021/03/26 04:46:14;;;;;;;35.40;13.83;;;0.00;98.60;;;;;;4207544;28;20276;-63
2021/03/26 04:48:21;;;;;;;35.47;12.23;;;0.30;98.20;;;;;;4209255;28;20302;-64
2021/03/26 04:50:29;;;;;;;30.47;13.67;;;0.50;97.60;;;;;;4207783;28;20381;-62
2021/03/26 04:52:40;;;;;;;41.77;12.90;;;0.80;97.60;;;;;;4208364;28;20690;-62
2021/03/26 04:54:50;;;;;;;35.85;14.27;;;1.00;97.20;;;;;;4206566;28;20307;-69
2021/03/26 04:57:00;;;;;;;30.53;12.67;;;1.40;96.70;;;;;;4208481;28;20032;-62
2021/03/26 04:59:04;;;;;;;23.38;10.27;;;1.60;95.90;;;;;;4207080;28;20785;-63
2021/03/26 05:01:13;;;;;;;30.07;11.93;;;2.10;95.50;;;;;;4207350;28;20081;-63
2021/03/26 05:03:23;;;;;;;33.30;11.70;;;2.50;94.50;;;;;;4207385;28;20264;-65
2021/03/26 05:05:26;;;;;;;24.15;9.77;;;2.90;93.60;;;;;;4208438;28;20276;-72
2021/03/26 05:07:36;;;;;;;24.20;9.20;;;3.20;92.10;;;;;;4207051;28;20074;-63
2021/03/26 05:09:41;;;;;;;20.60;8.85;;;3.50;91.40;;;;;;4208779;28;20314;-65
2021/03/26 05:11:47;;;;;;;32.53;10.53;;;3.90;90.80;;;;;;4207321;28;20384;-63
2021/03/26 05:13:51;;;;;;;27.13;10.57;;;4.30;90.20;;;;;;4208713;28;20346;-62
2021/03/26 05:16:21;;;;;;;20.03;10.10;;;4.60;87.80;;;;;;4206406;28;20264;-63
2021/03/26 05:18:54;;;;;;;39.17;11.03;;;5.10;84.50;;;;;;4208072;28;20345;-62
2021/03/26 05:21:10;;;;;;;25.10;10.90;;;5.50;83.90;;;;;;4183907;28;20280;-64
2021/03/26 05:23:29;;;;;;;26.43;10.33;;;6.00;81.10;;;;;;4207190;28;20280;-62
2021/03/26 05:25:37;;;;;;;29.30;10.10;;;6.30;78.70;;;;;;4207720;28;20260;-67
2021/03/26 05:27:38;;;;;;;22.23;9.63;;;6.50;78.10;;;;;;4206569;28;20265;-63
2021/03/26 05:29:40;;;;;;;23.27;9.43;;;6.70;75.30;;;;;;4206304;28;20285;-64
2021/03/26 05:31:53;;;;;;;27.60;10.53;;;6.70;74.70;;;;;;4205234;28;20318;-64
2021/03/26 05:33:59;;;;;;;27.27;11.37;;;6.80;74.30;;;;;;4207076;28;20318;-72
2021/03/26 05:36:00;;;;;;;23.93;10.33;;;7.10;72.60;;;;;;4207229;28;20036;-65
2021/03/26 05:38:15;;;;;;;25.13;10.23;;;7.20;71.90;;;;;;4206361;28;20829;-64
2021/03/26 05:40:47;;;;;;;20.20;10.30;;;7.20;68.10;;;;;;4207334;28;20036;-66
2021/03/26 05:43:00;;;;;;;20.00;9.93;;;7.30;68.80;;;;;;4207544;28;20781;-64
2021/03/26 05:45:29;;;;;;;23.30;10.17;;;7.60;69.00;;;;;;4206402;28;20036;-63
2021/03/26 05:47:45;;;;;;;23.13;10.10;;;8.20;67.20;;;;;;4207410;28;20032;-64
2021/03/26 05:50:07;;;;;;;23.93;10.10;;;8.80;65.70;;;;;;4206296;28;20383;-64
2021/03/26 05:52:45;;;;;;;27.83;14.33;;;9.30;65.30;;;;;;4189835;28;20058;-64
2021/03/26 05:55:13;;;;;;;49.93;25.03;;;10.20;62.90;;;;;;4188687;28;20673;-63
2021/03/26 05:57:28;;;;;;;76.07;35.33;;;10.70;61.70;;;;;;4191110;28;20075;-65
2021/03/26 05:59:52;;;;;;;86.90;36.17;;;10.80;60.20;;;;;;4189916;28;20090;-68
2021/03/26 06:02:24;;;;;;;93.43;39.87;;;11.30;60.60;;;;;;4190592;28;20029;-67
2021/03/26 06:04:42;;;;;;;59.97;26.30;;;11.80;57.00;;;;;;4190549;28;20056;-67
2021/03/26 06:06:57;;;;;;;47.60;21.73;;;11.90;56.90;;;;;;4203919;28;20093;-65
2021/03/26 06:09:08;;;;;;;39.00;17.40;;;12.10;56.70;;;;;;4207318;28;20089;-66
2021/03/26 06:11:27;;;;;;;33.45;16.25;;;12.50;56.60;;;;;;4206010;28;20031;-66
2021/03/26 06:14:10;;;;;;;64.40;26.10;;;12.80;54.80;;;;;;4207643;28;20039;-66
2021/03/26 06:16:23;;;;;;;35.10;17.47;;;13.20;52.50;;;;;;4206427;28;20089;-65
2021/03/26 06:18:51;;;;;;;48.93;21.37;;;13.10;53.60;;;;;;4206794;28;20048;-65
2021/03/26 06:21:23;;;;;;;33.67;16.63;;;13.00;52.60;;;;;;4204820;28;20048;-66
2021/03/26 06:24:01;;;;;;;72.20;30.47;;;13.20;51.60;;;;;;4206156;28;20036;-66
2021/03/26 06:26:14;;;;;;;38.50;15.13;;;13.50;50.90;;;;;;4205767;28;20401;-66
2021/03/26 06:28:30;;;;;;;23.63;11.80;;;13.60;51.40;;;;;;4204438;28;20040;-65
2021/03/26 06:30:52;;;;;;;25.73;12.73;;;13.60;51.00;;;;;;4205785;28;20036;-68
2021/03/26 06:33:09;;;;;;;35.20;17.43;;;13.70;50.30;;;;;;4205985;28;20702;-66
2021/03/26 06:35:25;;;;;;;40.80;20.80;;;14.00;49.50;;;;;;4206728;28;20545;-66
2021/03/26 06:37:47;;;;;;;33.70;14.77;;;14.10;49.30;;;;;;4205708;28;20097;-67
2021/03/26 06:40:20;;;;;;;59.70;25.97;;;14.30;48.70;;;;;;4206747;28;20922;-64
2021/03/26 06:42:58;;;;;;;39.27;18.40;;;14.40;47.70;;;;;;4182032;28;20089;-66
2021/03/26 06:45:37;;;;;;;28.70;15.37;;;14.50;48.80;;;;;;4206114;28;20073;-65
2021/03/26 06:47:58;;;;;;;45.47;19.57;;;14.80;47.50;;;;;;4206312;28;20553;-65
2021/03/26 06:50:25;;;;;;;34.78;16.42;;;14.80;46.60;;;;;;4205880;28;20031;-66
2021/03/26 06:52:26;;;;;;;23.43;13.13;;;14.40;47.00;;;;;;4206772;28;20484;-65
2021/03/26 06:54:47;;;;;;;31.27;16.67;;;14.20;48.80;;;;;;4205985;28;20092;-65
2021/03/26 06:57:00;;;;;;;36.50;18.93;;;14.30;47.70;;;;;;4207005;28;20093;-65
2021/03/26 06:59:20;;;;;;;24.90;13.60;;;14.20;48.90;;;;;;4205621;28;20093;-66
2021/03/26 07:01:52;;;;;;;34.40;16.45;;;13.70;47.60;;;;;;4206803;28;20020;-65
2021/03/26 07:04:25;;;;;;;24.47;13.20;;;13.10;48.80;;;;;;4203969;28;20028;-65
2021/03/26 07:06:49;;;;;;;21.73;10.63;;;13.40;49.10;;;;;;4206319;28;20039;-63
2021/03/26 07:09:06;;;;;;;30.93;15.07;;;14.10;48.50;;;;;;4205164;28;20395;-65
2021/03/26 07:11:25;;;;;;;28.03;14.40;;;14.60;48.10;;;;;;4205438;28;20093;-64
2021/03/26 07:13:48;;;;;;;22.17;11.53;;;14.70;47.80;;;;;;4205412;28;20082;-65
2021/03/26 07:16:17;;;;;;;28.97;12.07;;;14.80;47.60;;;;;;4205388;28;20463;-63
2021/03/26 07:19:02;;;;;;;22.13;12.10;;;14.00;47.20;;;;;;4205705;28;20140;-66
2021/03/26 07:21:11;;;;;;;23.67;12.40;;;13.20;47.70;;;;;;4184520;28;20044;-66
2021/03/26 07:23:46;;;;;;;23.37;12.30;;;13.20;49.40;;;;;;4206276;28;20152;-65
2021/03/26 07:26:09;;;;;;;22.30;12.77;;;13.10;49.00;;;;;;4204858;28;20028;-65
2021/03/26 07:28:25;;;;;;;24.80;12.37;;;13.00;49.60;;;;;;4206002;28;20028;-65
2021/03/26 07:30:38;;;;;;;24.43;12.13;;;12.70;49.70;;;;;;4205654;28;20031;-68
2021/03/26 07:32:49;;;;;;;21.67;12.17;;;12.60;50.00;;;;;;4204433;28;20032;-65
2021/03/26 07:35:18;;;;;;;22.60;12.33;;;12.80;50.30;;;;;;4205355;28;20043;-66
2021/03/26 07:37:42;;;;;;;26.13;12.33;;;12.80;49.80;;;;;;4204786;28;20764;-66
2021/03/26 07:39:43;;;;;;;23.30;11.73;;;12.70;49.50;;;;;;4185219;28;20048;-65
2021/03/26 07:41:58;;;;;;;20.37;11.57;;;12.30;50.20;;;;;;4205115;28;20969;-64
2021/03/26 07:44:23;;;;;;;26.80;13.53;;;12.20;50.00;;;;;;4206029;28;20488;-64
2021/03/26 07:46:58;;;;;;;26.63;13.37;;;12.20;50.50;;;;;;4205304;28;20495;-65
2021/03/26 07:49:19;;;;;;;34.00;13.87;;;12.50;50.60;;;;;;4205835;28;20725;-64
2021/03/26 07:51:23;;;;;;;28.63;13.50;;;12.00;50.90;;;;;;4203494;28;20504;-64
2021/03/26 07:53:50;;;;;;;29.70;14.33;;;11.40;51.90;;;;;;4205026;28;20062;-66
2021/03/26 07:56:19;;;;;;;33.10;15.10;;;11.20;52.10;;;;;;4204211;28;20038;-65
2021/03/26 07:58:42;;;;;;;31.13;14.20;;;10.60;53.30;;;;;;4206122;28;20514;-65
2021/03/26 08:01:22;;;;;;;26.53;15.70;;;10.10;54.60;;;;;;4204932;28;20065;-65
2021/03/26 08:03:39;;;;;;;33.47;16.00;;;9.70;55.50;;;;;;4203184;28;20530;-65
2021/03/26 08:06:07;;;;;;;37.13;16.00;;;9.70;56.10;;;;;;4205701;28;20381;-65
2021/03/26 08:08:14;;;;;;;37.03;15.53;;;9.60;55.70;;;;;;4204053;28;20071;-65
2021/03/26 08:10:34;;;;;;;29.60;14.07;;;9.70;55.80;;;;;;4204115;28;20105;-65
2021/03/26 08:12:58;;;;;;;29.00;14.75;;;9.90;55.40;;;;;;4204497;28;20028;-70
2021/03/26 08:15:14;;;;;;;28.90;14.30;;;10.10;55.00;;;;;;4205771;28;20553;-66
2021/03/26 08:17:53;;;;;;;37.03;15.27;;;10.30;54.70;;;;;;4204151;28;20092;-67
2021/03/26 08:20:19;;;;;;;31.43;15.07;;;10.00;55.30;;;;;;4205349;28;20020;-65
2021/03/26 08:22:44;;;;;;;33.10;15.80;;;10.20;55.40;;;;;;4204916;28;20028;-65
2021/03/26 08:25:19;;;;;;;35.70;15.50;;;10.30;55.20;;;;;;4205733;28;20480;-66
2021/03/26 08:27:59;;;;;;;27.53;13.70;;;10.90;54.60;;;;;;4205622;28;20036;-65
2021/03/26 08:30:34;;;;;;;36.42;14.32;;;11.40;53.40;;;;;;4204426;28;20020;-65
2021/03/26 08:32:57;;;;;;;30.83;13.50;;;11.50;53.30;;;;;;4205264;28;20036;-65
2021/03/26 08:35:25;;;;;;;33.87;14.10;;;11.50;53.10;;;;;;4204135;28;20089;-63
2021/03/26 08:37:54;;;;;;;32.87;15.77;;;11.60;52.90;;;;;;4205048;28;20434;-65
2021/03/26 08:39:58;;;;;;;29.83;14.90;;;11.80;52.90;;;;;;4174928;28;20081;-65
2021/03/26 08:42:08;;;;;;;28.10;13.53;;;11.90;53.00;;;;;;4204643;28;20559;-65
2021/03/26 08:44:18;;;;;;;26.10;13.53;;;11.40;53.10;;;;;;4204413;28;20484;-65
2021/03/26 08:46:22;;;;;;;28.17;13.80;;;10.80;53.90;;;;;;4205189;28;20028;-65
2021/03/26 08:48:41;;;;;;;27.33;13.67;;;10.70;54.60;;;;;;4204205;28;20085;-65
2021/03/26 08:51:08;;;;;;;25.40;13.97;;;10.60;54.80;;;;;;4204441;28;20497;-66
2021/03/26 08:53:21;;;;;;;35.87;13.90;;;10.70;54.90;;;;;;4205245;28;20020;-65
2021/03/26 08:55:34;;;;;;;24.87;12.63;;;10.80;55.10;;;;;;4204164;28;20481;-65
2021/03/26 08:58:03;;;;;;;33.33;13.63;;;11.00;54.70;;;;;;4205240;28;20365;-66
2021/03/26 09:00:17;;;;;;;29.43;13.50;;;10.90;54.70;;;;;;4204232;28;20525;-65
2021/03/26 09:02:53;;;;;;;24.63;11.97;;;10.90;54.90;;;;;;4205733;28;20070;-67
2021/03/26 09:05:03;;;;;;;23.07;12.33;;;11.00;54.80;;;;;;4204221;28;20086;-65
2021/03/26 09:07:22;;;;;;;26.87;13.03;;;11.30;54.40;;;;;;4205364;28;20428;-66
2021/03/26 09:09:41;;;;;;;28.90;12.97;;;11.00;54.60;;;;;;4204221;28;20024;-66
2021/03/26 09:11:57;;;;;;;24.70;11.83;;;10.70;55.30;;;;;;4205655;28;20265;-66
2021/03/26 09:14:23;;;;;;;20.87;10.23;;;10.70;55.70;;;;;;4204242;28;20050;-66
2021/03/26 09:16:37;;;;;;;19.20;10.17;;;10.80;54.80;;;;;;4204912;28;20085;-66
2021/03/26 09:19:10;;;;;;;23.07;10.37;;;10.90;54.40;;;;;;4203970;28;20066;-66
2021/03/26 09:21:34;;;;;;;20.50;11.33;;;10.80;53.20;;;;;;4204432;28;20085;-66
2021/03/26 09:23:53;;;;;;;24.93;11.80;;;10.80;54.10;;;;;;4203773;28;20105;-65
2021/03/26 09:26:29;;;;;;;24.57;12.03;;;10.80;54.40;;;;;;4203816;28;20073;-66
2021/03/26 09:28:38;;;;;;;22.43;11.13;;;11.00;54.30;;;;;;4208202;28;20020;-66
2021/03/26 09:31:02;;;;;;;21.83;11.13;;;11.30;53.70;;;;;;4206959;28;20521;-66
2021/03/26 09:33:13;;;;;;;24.93;10.73;;;11.50;53.50;;;;;;4208222;28;20089;-66
2021/03/26 09:35:36;;;;;;;18.90;10.20;;;12.00;53.20;;;;;;4206546;28;20032;-68
2021/03/26 09:37:52;;;;;;;23.37;12.00;;;12.30;51.60;;;;;;4208061;28;20081;-66
2021/03/26 09:40:00;;;;;;;17.90;9.40;;;12.30;52.10;;;;;;4206510;28;20488;-65
2021/03/26 09:42:26;;;;;;;21.87;11.30;;;12.30;51.90;;;;;;4208046;28;20028;-69
2021/03/26 09:44:43;;;;;;;20.60;11.07;;;12.30;51.70;;;;;;4206605;28;20028;-65
2021/03/26 09:46:49;;;;;;;19.63;10.20;;;12.30;51.80;;;;;;4207686;28;20032;-66
2021/03/26 09:49:15;;;;;;;22.20;10.47;;;12.30;52.00;;;;;;4206366;28;20020;-64
2021/03/26 09:51:41;;;;;;;28.57;11.13;;;12.60;51.00;;;;;;4207107;28;20024;-66
2021/03/26 09:53:43;;;;;;;19.50;9.93;;;12.50;51.40;;;;;;4207731;28;20028;-66
2021/03/26 09:55:45;;;;;;;31.00;12.47;;;12.60;51.40;;;;;;4206528;28;20025;-66
2021/03/26 09:58:05;;;;;;;25.63;10.73;;;12.30;51.60;;;;;;4207139;28;20105;-67
2021/03/26 10:00:24;;;;;;;17.10;10.35;;;12.00;51.50;;;;;;4206726;28;20502;-64
2021/03/26 10:02:41;;;;;;;21.27;11.13;;;11.60;52.20;;;;;;4206489;28;20024;-66
2021/03/26 10:05:14;;;;;;;24.20;11.47;;;11.50;51.80;;;;;;4205762;28;20125;-66
2021/03/26 10:07:35;;;;;;;21.47;10.37;;;11.50;52.20;;;;;;4204170;28;20439;-65
2021/03/26 10:09:45;;;;;;;;;;;11.60;52.20;;;;;;4206264;28;20074;-66
2021/03/26 10:11:46;;;;;;;22.07;11.03;;;11.30;51.60;;;;;;4207237;28;20289;-66
2021/03/26 10:14:08;;;;;;;22.47;10.93;;;11.20;51.80;;;;;;4206108;28;20078;-66
2021/03/26 10:16:10;;;;;;;22.90;10.43;;;11.00;52.00;;;;;;4207542;28;20532;-66
2021/03/26 10:18:20;;;;;;;21.30;10.33;;;11.00;52.20;;;;;;4206121;28;20040;-66
2021/03/26 10:20:28;;;;;;;23.63;11.07;;;11.10;52.40;;;;;;4207431;28;20078;-65
2021/03/26 10:22:39;;;;;;;15.83;9.40;;;11.30;52.30;;;;;;4205276;28;20361;-67
2021/03/26 10:24:43;;;;;;;18.50;9.07;;;11.50;51.60;;;;;;4207567;28;20418;-66
2021/03/26 10:27:10;;;;;;;17.83;9.00;;;11.20;51.50;;;;;;4205590;28;20032;-65
2021/03/26 10:29:40;;;;;;;19.03;9.73;;;11.20;51.60;;;;;;4206527;28;20028;-65
2021/03/26 10:31:43;;;;;;;20.37;9.83;;;11.20;51.80;;;;;;4205641;28;20020;-65
2021/03/26 10:33:54;;;;;;;19.37;9.80;;;11.40;51.60;;;;;;4206330;28;20070;-66
2021/03/26 10:36:29;;;;;;;20.20;9.40;;;11.50;51.50;;;;;;4205755;28;20020;-66
2021/03/26 10:39:06;;;;;;;16.17;9.47;;;11.40;50.30;;;;;;4205733;28;20561;-66
2021/03/26 10:41:20;;;;;;;19.50;10.20;;;11.20;50.80;;;;;;4204852;28;20495;-66
2021/03/26 10:43:43;;;;;;;25.27;10.13;;;11.40;51.30;;;;;;4205055;28;20028;-66
2021/03/26 10:45:54;;;;;;;22.87;10.60;;;11.60;51.00;;;;;;4206938;28;20069;-66
2021/03/26 10:48:05;;;;;;;26.40;11.87;;;11.80;50.60;;;;;;4205578;28;20644;-66
2021/03/26 10:50:12;;;;;;;25.25;11.13;;;12.00;50.60;;;;;;4206520;28;20373;-66
2021/03/26 10:52:19;;;;;;;19.87;10.47;;;12.10;50.80;;;;;;4204930;28;20036;-66
2021/03/26 10:54:26;;;;;;;18.57;9.50;;;12.10;50.60;;;;;;4206822;28;20035;-66
2021/03/26 10:56:27;;;;;;;21.00;10.93;;;12.10;50.70;;;;;;4205407;28;20054;-66
2021/03/26 10:58:44;;;;;;;20.13;10.87;;;12.00;50.80;;;;;;4206157;28;20044;-65
2021/03/26 11:00:56;;;;;;;22.20;10.77;;;12.00;51.50;;;;;;4205163;28;20020;-66
2021/03/26 11:03:06;;;;;;;21.47;11.83;;;11.90;51.60;;;;;;4205999;28;20109;-68
2021/03/26 11:05:40;;;;;;;23.10;12.07;;;11.90;52.00;;;;;;4205554;28;20048;-68
2021/03/26 11:08:10;;;;;;;28.63;12.53;;;11.90;52.30;;;;;;4206108;28;20041;-65
2021/03/26 11:10:18;;;;;;;22.58;12.10;;;11.90;52.30;;;;;;4188657;28;20036;-66
2021/03/26 11:12:19;;;;;;;23.23;12.27;;;12.00;52.20;;;;;;4205011;28;20141;-66
2021/03/26 11:14:38;;;;;;;19.70;11.47;;;12.10;52.30;;;;;;4205086;28;20036;-66
2021/03/26 11:17:17;;;;;;;22.03;11.83;;;12.20;52.00;;;;;;4206349;28;20031;-66
2021/03/26 11:19:30;;;;;;;26.57;12.73;;;12.20;51.70;;;;;;4203496;28;20140;-67
2021/03/26 11:22:04;;;;;;;21.17;11.43;;;12.20;52.00;;;;;;4205840;28;20024;-67
2021/03/26 11:24:07;;;;;;;26.60;11.47;;;12.40;51.90;;;;;;4204875;28;20117;-67
2021/03/26 11:26:26;;;;;;;22.73;11.60;;;12.10;51.80;;;;;;4206007;28;21080;-67